sensor_id;sensor_type;location;lat;lon;timestamp;P1;durP1;ratioP1;P2;durP2;ratioP2
80227;SDS011;69539;42.138;24.742;2024-03-17T00:02:13;13.43;;;9.90;;
80227;SDS011;69539;42.138;24.742;2024-03-17T00:04:38;13.48;;;10.63;;
80227;SDS011;69539;42.138;24.742;2024-03-17T00:07:04;14.88;;;10.80;;
80227;SDS011;69539;42.138;24.742;2024-03-17T00:09:29;13.98;;;11.35;;
80227;SDS011;69539;42.138;24.742;2024-03-17T00:11:55;15.82;;;11.60;;
80227;SDS011;69539;42.138;24.742;2024-03-17T00:14:21;16.98;;;11.82;;
80227;SDS011;69539;42.138;24.742;2024-03-17T00:16:47;14.10;;;11.95;;
80227;SDS011;69539;42.138;24.742;2024-03-17T00:19:13;15.82;;;11.95;;
80227;SDS011;69539;42.138;24.742;2024-03-17T00:21:39;15.48;;;11.68;;
80227;SDS011;69539;42.138;24.742;2024-03-17T00:24:05;13.40;;;10.57;;
80227;SDS011;69539;42.138;24.742;2024-03-17T00:26:32;13.60;;;10.82;;
80227;SDS011;69539;42.138;24.742;2024-03-17T00:28:59;15.15;;;12.05;;
80227;SDS011;69539;42.138;24.742;2024-03-17T00:31:24;17.10;;;12.45;;
80227;SDS011;69539;42.138;24.742;2024-03-17T00:33:53;15.07;;;11.25;;
80227;SDS011;69539;42.138;24.742;2024-03-17T00:36:19;13.63;;;11.13;;
80227;SDS011;69539;42.138;24.742;2024-03-17T00:38:44;14.38;;;11.68;;
80227;SDS011;69539;42.138;24.742;2024-03-17T00:41:10;16.38;;;12.07;;
80227;SDS011;69539;42.138;24.742;2024-03-17T00:43:36;14.75;;;11.10;;
80227;SDS011;69539;42.138;24.742;2024-03-17T00:46:02;14.95;;;11.52;;
80227;SDS011;69539;42.138;24.742;2024-03-17T00:48:28;15.13;;;12.02;;
80227;SDS011;69539;42.138;24.742;2024-03-17T00:50:57;15.23;;;12.18;;
80227;SDS011;69539;42.138;24.742;2024-03-17T00:53:24;17.85;;;13.27;;
80227;SDS011;69539;42.138;24.742;2024-03-17T00:55:53;16.15;;;12.80;;
80227;SDS011;69539;42.138;24.742;2024-03-17T00:58:26;18.30;;;13.43;;
80227;SDS011;69539;42.138;24.742;2024-03-17T01:00:51;17.50;;;13.00;;
80227;SDS011;69539;42.138;24.742;2024-03-17T01:03:17;18.15;;;13.10;;
80227;SDS011;69539;42.138;24.742;2024-03-17T01:05:43;18.63;;;13.55;;
80227;SDS011;69539;42.138;24.742;2024-03-17T01:08:13;19.10;;;14.05;;
80227;SDS011;69539;42.138;24.742;2024-03-17T01:10:42;18.55;;;13.50;;
80227;SDS011;69539;42.138;24.742;2024-03-17T01:13:09;18.10;;;13.95;;
80227;SDS011;69539;42.138;24.742;2024-03-17T01:15:35;18.52;;;13.73;;
80227;SDS011;69539;42.138;24.742;2024-03-17T01:18:03;17.23;;;13.07;;
80227;SDS011;69539;42.138;24.742;2024-03-17T01:20:32;17.55;;;12.98;;
80227;SDS011;69539;42.138;24.742;2024-03-17T01:22:58;19.92;;;14.27;;
80227;SDS011;69539;42.138;24.742;2024-03-17T01:25:24;18.25;;;14.10;;
80227;SDS011;69539;42.138;24.742;2024-03-17T01:30:18;16.92;;;13.43;;
80227;SDS011;69539;42.138;24.742;2024-03-17T01:32:44;17.88;;;13.90;;
80227;SDS011;69539;42.138;24.742;2024-03-17T01:35:10;17.33;;;13.80;;
80227;SDS011;69539;42.138;24.742;2024-03-17T01:37:37;16.77;;;13.65;;
80227;SDS011;69539;42.138;24.742;2024-03-17T01:40:03;18.90;;;13.57;;
80227;SDS011;69539;42.138;24.742;2024-03-17T01:42:35;17.40;;;13.18;;
80227;SDS011;69539;42.138;24.742;2024-03-17T01:45:17;21.27;;;14.85;;
80227;SDS011;69539;42.138;24.742;2024-03-17T01:47:43;17.90;;;13.63;;
80227;SDS011;69539;42.138;24.742;2024-03-17T01:50:09;17.17;;;13.18;;
80227;SDS011;69539;42.138;24.742;2024-03-17T01:52:37;17.95;;;14.23;;
80227;SDS011;69539;42.138;24.742;2024-03-17T01:55:04;17.23;;;13.52;;
80227;SDS011;69539;42.138;24.742;2024-03-17T01:57:30;16.88;;;13.43;;
80227;SDS011;69539;42.138;24.742;2024-03-17T01:59:56;16.60;;;12.70;;
80227;SDS011;69539;42.138;24.742;2024-03-17T02:02:23;17.08;;;13.07;;
80227;SDS011;69539;42.138;24.742;2024-03-17T02:04:49;16.70;;;11.98;;
80227;SDS011;69539;42.138;24.742;2024-03-17T02:07:15;14.60;;;11.98;;
80227;SDS011;69539;42.138;24.742;2024-03-17T02:09:41;16.55;;;12.38;;
80227;SDS011;69539;42.138;24.742;2024-03-17T02:12:08;15.25;;;12.05;;
80227;SDS011;69539;42.138;24.742;2024-03-17T02:14:34;17.00;;;13.13;;
80227;SDS011;69539;42.138;24.742;2024-03-17T02:17:00;17.25;;;12.88;;
80227;SDS011;69539;42.138;24.742;2024-03-17T02:19:26;14.52;;;12.02;;
80227;SDS011;69539;42.138;24.742;2024-03-17T02:21:51;15.52;;;12.00;;
80227;SDS011;69539;42.138;24.742;2024-03-17T02:24:17;15.15;;;12.07;;
80227;SDS011;69539;42.138;24.742;2024-03-17T02:26:43;14.57;;;12.32;;
80227;SDS011;69539;42.138;24.742;2024-03-17T02:29:09;15.63;;;11.60;;
80227;SDS011;69539;42.138;24.742;2024-03-17T02:31:34;15.27;;;12.10;;
80227;SDS011;69539;42.138;24.742;2024-03-17T02:34:01;13.95;;;11.73;;
80227;SDS011;69539;42.138;24.742;2024-03-17T02:36:26;16.48;;;12.40;;
80227;SDS011;69539;42.138;24.742;2024-03-17T02:38:52;15.05;;;11.95;;
80227;SDS011;69539;42.138;24.742;2024-03-17T02:41:36;17.80;;;12.77;;
80227;SDS011;69539;42.138;24.742;2024-03-17T02:44:02;14.27;;;11.60;;
80227;SDS011;69539;42.138;24.742;2024-03-17T02:46:27;16.08;;;11.98;;
80227;SDS011;69539;42.138;24.742;2024-03-17T02:48:54;17.23;;;12.52;;
80227;SDS011;69539;42.138;24.742;2024-03-17T02:51:20;16.58;;;12.38;;
80227;SDS011;69539;42.138;24.742;2024-03-17T02:53:47;15.32;;;12.38;;
80227;SDS011;69539;42.138;24.742;2024-03-17T02:56:14;15.32;;;12.20;;
80227;SDS011;69539;42.138;24.742;2024-03-17T02:58:43;17.13;;;13.15;;
80227;SDS011;69539;42.138;24.742;2024-03-17T03:01:11;15.90;;;12.07;;
80227;SDS011;69539;42.138;24.742;2024-03-17T03:03:37;16.95;;;12.77;;
80227;SDS011;69539;42.138;24.742;2024-03-17T03:06:03;16.63;;;12.90;;
80227;SDS011;69539;42.138;24.742;2024-03-17T03:08:34;16.45;;;12.95;;
80227;SDS011;69539;42.138;24.742;2024-03-17T03:11:01;17.40;;;12.70;;
80227;SDS011;69539;42.138;24.742;2024-03-17T03:13:27;17.95;;;12.88;;
80227;SDS011;69539;42.138;24.742;2024-03-17T03:15:53;18.02;;;13.32;;
80227;SDS011;69539;42.138;24.742;2024-03-17T03:18:19;19.27;;;13.88;;
80227;SDS011;69539;42.138;24.742;2024-03-17T03:20:50;18.75;;;14.05;;
80227;SDS011;69539;42.138;24.742;2024-03-17T03:23:17;18.80;;;13.25;;
80227;SDS011;69539;42.138;24.742;2024-03-17T03:25:42;17.92;;;13.35;;
80227;SDS011;69539;42.138;24.742;2024-03-17T03:28:08;18.65;;;13.77;;
80227;SDS011;69539;42.138;24.742;2024-03-17T03:30:37;18.05;;;14.25;;
80227;SDS011;69539;42.138;24.742;2024-03-17T03:33:03;17.77;;;13.30;;
80227;SDS011;69539;42.138;24.742;2024-03-17T03:35:30;17.70;;;14.02;;
80227;SDS011;69539;42.138;24.742;2024-03-17T03:37:56;17.80;;;13.70;;
80227;SDS011;69539;42.138;24.742;2024-03-17T03:40:22;19.02;;;14.35;;
80227;SDS011;69539;42.138;24.742;2024-03-17T03:42:47;21.63;;;15.27;;
80227;SDS011;69539;42.138;24.742;2024-03-17T03:45:13;20.92;;;15.10;;
80227;SDS011;69539;42.138;24.742;2024-03-17T03:47:39;21.65;;;15.80;;
80227;SDS011;69539;42.138;24.742;2024-03-17T03:50:07;19.80;;;14.95;;
80227;SDS011;69539;42.138;24.742;2024-03-17T03:52:36;19.30;;;15.25;;
80227;SDS011;69539;42.138;24.742;2024-03-17T03:55:03;19.80;;;14.88;;
80227;SDS011;69539;42.138;24.742;2024-03-17T03:57:29;21.65;;;15.60;;
80227;SDS011;69539;42.138;24.742;2024-03-17T03:59:57;20.60;;;15.63;;
80227;SDS011;69539;42.138;24.742;2024-03-17T04:02:22;21.42;;;16.45;;
80227;SDS011;69539;42.138;24.742;2024-03-17T04:04:50;20.33;;;15.35;;
80227;SDS011;69539;42.138;24.742;2024-03-17T04:07:15;21.05;;;15.55;;
80227;SDS011;69539;42.138;24.742;2024-03-17T04:09:41;20.77;;;15.50;;
80227;SDS011;69539;42.138;24.742;2024-03-17T04:12:07;20.23;;;15.68;;
80227;SDS011;69539;42.138;24.742;2024-03-17T04:14:33;21.08;;;16.08;;
80227;SDS011;69539;42.138;24.742;2024-03-17T04:16:58;21.35;;;15.43;;
80227;SDS011;69539;42.138;24.742;2024-03-17T04:19:24;19.55;;;15.77;;
80227;SDS011;69539;42.138;24.742;2024-03-17T04:21:51;20.83;;;16.48;;
80227;SDS011;69539;42.138;24.742;2024-03-17T04:24:17;20.27;;;15.60;;
80227;SDS011;69539;42.138;24.742;2024-03-17T04:26:43;21.63;;;16.20;;
80227;SDS011;69539;42.138;24.742;2024-03-17T04:29:08;21.85;;;16.52;;
80227;SDS011;69539;42.138;24.742;2024-03-17T04:31:34;20.70;;;15.30;;
80227;SDS011;69539;42.138;24.742;2024-03-17T04:34:00;21.42;;;16.58;;
80227;SDS011;69539;42.138;24.742;2024-03-17T04:36:25;19.65;;;15.18;;
80227;SDS011;69539;42.138;24.742;2024-03-17T04:38:51;19.60;;;14.75;;
80227;SDS011;69539;42.138;24.742;2024-03-17T04:41:19;18.23;;;14.80;;
80227;SDS011;69539;42.138;24.742;2024-03-17T04:43:44;20.75;;;14.77;;
80227;SDS011;69539;42.138;24.742;2024-03-17T04:46:11;20.05;;;14.23;;
80227;SDS011;69539;42.138;24.742;2024-03-17T04:48:38;20.25;;;14.75;;
80227;SDS011;69539;42.138;24.742;2024-03-17T04:51:04;20.38;;;15.20;;
80227;SDS011;69539;42.138;24.742;2024-03-17T04:53:30;22.60;;;16.13;;
80227;SDS011;69539;42.138;24.742;2024-03-17T04:56:02;23.60;;;16.17;;
80227;SDS011;69539;42.138;24.742;2024-03-17T04:58:33;19.80;;;15.63;;
80227;SDS011;69539;42.138;24.742;2024-03-17T05:01:03;19.48;;;15.15;;
80227;SDS011;69539;42.138;24.742;2024-03-17T05:03:29;20.60;;;15.70;;
80227;SDS011;69539;42.138;24.742;2024-03-17T05:05:58;247.20;;;153.55;;
80227;SDS011;69539;42.138;24.742;2024-03-17T05:08:28;90.60;;;61.95;;
80227;SDS011;69539;42.138;24.742;2024-03-17T05:10:58;192.50;;;116.03;;
80227;SDS011;69539;42.138;24.742;2024-03-17T05:13:31;134.38;;;81.22;;
80227;SDS011;69539;42.138;24.742;2024-03-17T05:15:57;62.80;;;44.33;;
80227;SDS011;69539;42.138;24.742;2024-03-17T05:18:24;46.03;;;34.78;;
80227;SDS011;69539;42.138;24.742;2024-03-17T05:21:00;39.90;;;29.08;;
80227;SDS011;69539;42.138;24.742;2024-03-17T05:23:28;30.67;;;24.02;;
80227;SDS011;69539;42.138;24.742;2024-03-17T05:25:55;27.17;;;20.42;;
80227;SDS011;69539;42.138;24.742;2024-03-17T05:28:22;26.35;;;17.73;;
80227;SDS011;69539;42.138;24.742;2024-03-17T05:30:49;21.20;;;16.42;;
80227;SDS011;69539;42.138;24.742;2024-03-17T05:33:16;20.73;;;15.73;;
80227;SDS011;69539;42.138;24.742;2024-03-17T05:35:52;20.05;;;14.63;;
80227;SDS011;69539;42.138;24.742;2024-03-17T05:38:19;19.70;;;13.88;;
80227;SDS011;69539;42.138;24.742;2024-03-17T05:41:07;19.55;;;13.95;;
80227;SDS011;69539;42.138;24.742;2024-03-17T05:43:33;19.20;;;14.52;;
80227;SDS011;69539;42.138;24.742;2024-03-17T05:46:03;19.23;;;14.25;;
80227;SDS011;69539;42.138;24.742;2024-03-17T05:48:34;19.05;;;14.38;;
80227;SDS011;69539;42.138;24.742;2024-03-17T05:51:04;18.42;;;14.68;;
80227;SDS011;69539;42.138;24.742;2024-03-17T05:53:30;17.23;;;14.05;;
80227;SDS011;69539;42.138;24.742;2024-03-17T05:55:59;18.58;;;14.48;;
80227;SDS011;69539;42.138;24.742;2024-03-17T05:58:25;16.35;;;12.95;;
80227;SDS011;69539;42.138;24.742;2024-03-17T06:00:51;80.03;;;57.65;;
80227;SDS011;69539;42.138;24.742;2024-03-17T06:03:17;76.82;;;53.17;;
80227;SDS011;69539;42.138;24.742;2024-03-17T06:05:43;61.80;;;43.25;;
80227;SDS011;69539;42.138;24.742;2024-03-17T06:08:11;43.35;;;33.13;;
80227;SDS011;69539;42.138;24.742;2024-03-17T06:10:37;32.95;;;26.25;;
80227;SDS011;69539;42.138;24.742;2024-03-17T06:13:07;25.25;;;20.02;;
80227;SDS011;69539;42.138;24.742;2024-03-17T06:15:37;23.65;;;17.27;;
80227;SDS011;69539;42.138;24.742;2024-03-17T06:18:03;20.15;;;16.15;;
80227;SDS011;69539;42.138;24.742;2024-03-17T06:20:29;20.77;;;15.70;;
80227;SDS011;69539;42.138;24.742;2024-03-17T06:22:55;18.33;;;14.30;;
80227;SDS011;69539;42.138;24.742;2024-03-17T06:25:22;19.70;;;14.55;;
80227;SDS011;69539;42.138;24.742;2024-03-17T06:27:51;93.47;;;67.28;;
80227;SDS011;69539;42.138;24.742;2024-03-17T06:30:17;78.93;;;60.08;;
80227;SDS011;69539;42.138;24.742;2024-03-17T06:32:43;60.03;;;45.97;;
80227;SDS011;69539;42.138;24.742;2024-03-17T06:35:11;41.03;;;34.50;;
80227;SDS011;69539;42.138;24.742;2024-03-17T06:37:50;29.95;;;25.25;;
80227;SDS011;69539;42.138;24.742;2024-03-17T06:40:17;298.63;;;191.18;;
80227;SDS011;69539;42.138;24.742;2024-03-17T06:42:43;224.85;;;164.60;;
80227;SDS011;69539;42.138;24.742;2024-03-17T06:45:09;202.18;;;150.25;;
80227;SDS011;69539;42.138;24.742;2024-03-17T06:47:38;136.05;;;104.80;;
80227;SDS011;69539;42.138;24.742;2024-03-17T06:50:05;99.47;;;79.13;;
80227;SDS011;69539;42.138;24.742;2024-03-17T06:52:34;69.55;;;58.08;;
80227;SDS011;69539;42.138;24.742;2024-03-17T06:55:00;53.13;;;43.30;;
80227;SDS011;69539;42.138;24.742;2024-03-17T06:57:26;37.22;;;30.35;;
80227;SDS011;69539;42.138;24.742;2024-03-17T06:59:52;30.98;;;25.42;;
80227;SDS011;69539;42.138;24.742;2024-03-17T07:02:18;25.40;;;21.13;;
80227;SDS011;69539;42.138;24.742;2024-03-17T07:07:32;20.02;;;16.10;;
80227;SDS011;69539;42.138;24.742;2024-03-17T07:09:58;19.67;;;15.60;;
80227;SDS011;69539;42.138;24.742;2024-03-17T07:12:23;19.30;;;15.43;;
80227;SDS011;69539;42.138;24.742;2024-03-17T07:14:50;18.30;;;15.02;;
80227;SDS011;69539;42.138;24.742;2024-03-17T07:17:16;21.50;;;14.27;;
80227;SDS011;69539;42.138;24.742;2024-03-17T07:19:42;19.80;;;15.93;;
80227;SDS011;69539;42.138;24.742;2024-03-17T07:22:07;17.50;;;14.55;;
80227;SDS011;69539;42.138;24.742;2024-03-17T07:24:33;17.05;;;14.40;;
80227;SDS011;69539;42.138;24.742;2024-03-17T07:26:59;18.88;;;14.13;;
80227;SDS011;69539;42.138;24.742;2024-03-17T07:29:24;19.98;;;15.27;;
80227;SDS011;69539;42.138;24.742;2024-03-17T07:31:50;15.85;;;14.02;;
80227;SDS011;69539;42.138;24.742;2024-03-17T07:34:16;16.95;;;13.98;;
80227;SDS011;69539;42.138;24.742;2024-03-17T07:36:42;17.17;;;14.10;;
80227;SDS011;69539;42.138;24.742;2024-03-17T07:39:08;17.17;;;13.65;;
80227;SDS011;69539;42.138;24.742;2024-03-17T07:41:34;16.85;;;13.88;;
80227;SDS011;69539;42.138;24.742;2024-03-17T07:43:59;17.88;;;14.20;;
80227;SDS011;69539;42.138;24.742;2024-03-17T07:46:25;16.55;;;14.00;;
80227;SDS011;69539;42.138;24.742;2024-03-17T07:48:51;16.40;;;13.57;;
80227;SDS011;69539;42.138;24.742;2024-03-17T07:51:16;14.18;;;12.35;;
80227;SDS011;69539;42.138;24.742;2024-03-17T07:53:42;14.30;;;12.23;;
80227;SDS011;69539;42.138;24.742;2024-03-17T07:56:10;14.25;;;11.45;;
80227;SDS011;69539;42.138;24.742;2024-03-17T07:58:38;13.35;;;11.60;;
80227;SDS011;69539;42.138;24.742;2024-03-17T08:03:32;442.38;;;330.02;;
80227;SDS011;69539;42.138;24.742;2024-03-17T08:05:59;134.10;;;112.13;;
80227;SDS011;69539;42.138;24.742;2024-03-17T08:08:26;105.18;;;91.22;;
80227;SDS011;69539;42.138;24.742;2024-03-17T08:10:52;74.55;;;66.63;;
80227;SDS011;69539;42.138;24.742;2024-03-17T08:13:18;50.20;;;44.85;;
80227;SDS011;69539;42.138;24.742;2024-03-17T08:15:44;42.13;;;37.53;;
80227;SDS011;69539;42.138;24.742;2024-03-17T08:18:11;27.33;;;24.48;;
80227;SDS011;69539;42.138;24.742;2024-03-17T08:20:38;25.45;;;22.65;;
80227;SDS011;69539;42.138;24.742;2024-03-17T08:23:07;22.75;;;16.40;;
80227;SDS011;69539;42.138;24.742;2024-03-17T08:25:33;18.70;;;16.17;;
80227;SDS011;69539;42.138;24.742;2024-03-17T08:28:00;18.38;;;16.42;;
80227;SDS011;69539;42.138;24.742;2024-03-17T08:30:26;18.10;;;15.50;;
80227;SDS011;69539;42.138;24.742;2024-03-17T08:32:52;18.33;;;15.60;;
80227;SDS011;69539;42.138;24.742;2024-03-17T08:35:17;18.13;;;15.85;;
80227;SDS011;69539;42.138;24.742;2024-03-17T08:37:43;19.83;;;17.70;;
80227;SDS011;69539;42.138;24.742;2024-03-17T08:40:10;18.52;;;16.52;;
80227;SDS011;69539;42.138;24.742;2024-03-17T08:42:37;19.05;;;15.88;;
80227;SDS011;69539;42.138;24.742;2024-03-17T08:45:03;19.33;;;16.70;;
80227;SDS011;69539;42.138;24.742;2024-03-17T08:47:29;19.77;;;16.60;;
80227;SDS011;69539;42.138;24.742;2024-03-17T08:49:54;22.17;;;17.95;;
80227;SDS011;69539;42.138;24.742;2024-03-17T08:52:20;19.67;;;16.55;;
80227;SDS011;69539;42.138;24.742;2024-03-17T08:54:46;19.02;;;17.02;;
80227;SDS011;69539;42.138;24.742;2024-03-17T08:57:12;20.85;;;17.55;;
80227;SDS011;69539;42.138;24.742;2024-03-17T08:59:38;19.55;;;16.58;;
80227;SDS011;69539;42.138;24.742;2024-03-17T09:02:04;19.85;;;17.10;;
80227;SDS011;69539;42.138;24.742;2024-03-17T09:04:31;19.98;;;17.48;;
80227;SDS011;69539;42.138;24.742;2024-03-17T09:06:56;19.40;;;17.40;;
80227;SDS011;69539;42.138;24.742;2024-03-17T09:09:22;20.58;;;16.58;;
80227;SDS011;69539;42.138;24.742;2024-03-17T09:11:48;20.75;;;17.30;;
80227;SDS011;69539;42.138;24.742;2024-03-17T09:14:14;18.45;;;15.05;;
80227;SDS011;69539;42.138;24.742;2024-03-17T09:16:39;18.38;;;13.55;;
80227;SDS011;69539;42.138;24.742;2024-03-17T09:19:05;16.92;;;15.10;;
80227;SDS011;69539;42.138;24.742;2024-03-17T09:21:31;20.40;;;16.42;;
80227;SDS011;69539;42.138;24.742;2024-03-17T09:23:56;18.17;;;16.17;;
80227;SDS011;69539;42.138;24.742;2024-03-17T09:26:22;18.92;;;14.85;;
80227;SDS011;69539;42.138;24.742;2024-03-17T09:28:47;15.32;;;13.32;;
80227;SDS011;69539;42.138;24.742;2024-03-17T09:31:13;16.67;;;14.18;;
80227;SDS011;69539;42.138;24.742;2024-03-17T09:33:39;16.45;;;14.75;;
80227;SDS011;69539;42.138;24.742;2024-03-17T09:36:05;16.73;;;15.02;;
80227;SDS011;69539;42.138;24.742;2024-03-17T09:38:32;16.33;;;14.73;;
80227;SDS011;69539;42.138;24.742;2024-03-17T09:41:01;15.35;;;13.65;;
80227;SDS011;69539;42.138;24.742;2024-03-17T09:43:28;15.18;;;13.68;;
80227;SDS011;69539;42.138;24.742;2024-03-17T09:45:54;15.70;;;13.80;;
80227;SDS011;69539;42.138;24.742;2024-03-17T09:48:23;17.58;;;14.77;;
80227;SDS011;69539;42.138;24.742;2024-03-17T09:50:51;16.98;;;15.00;;
80227;SDS011;69539;42.138;24.742;2024-03-17T09:53:22;16.75;;;14.93;;
80227;SDS011;69539;42.138;24.742;2024-03-17T09:55:58;16.92;;;14.75;;
80227;SDS011;69539;42.138;24.742;2024-03-17T09:58:26;16.83;;;12.25;;
80227;SDS011;69539;42.138;24.742;2024-03-17T10:00:52;15.85;;;12.27;;
80227;SDS011;69539;42.138;24.742;2024-03-17T10:06:08;15.63;;;12.45;;
80227;SDS011;69539;42.138;24.742;2024-03-17T10:08:46;565.05;;;508.75;;
80227;SDS011;69539;42.138;24.742;2024-03-17T10:11:14;306.15;;;273.20;;
80227;SDS011;69539;42.138;24.742;2024-03-17T10:13:41;208.98;;;187.02;;
80227;SDS011;69539;42.138;24.742;2024-03-17T10:16:17;164.02;;;146.60;;
80227;SDS011;69539;42.138;24.742;2024-03-17T10:18:49;105.80;;;94.93;;
80227;SDS011;69539;42.138;24.742;2024-03-17T10:21:26;50.55;;;45.45;;
80227;SDS011;69539;42.138;24.742;2024-03-17T10:24:11;33.08;;;29.77;;
80227;SDS011;69539;42.138;24.742;2024-03-17T10:26:44;24.08;;;21.58;;
80227;SDS011;69539;42.138;24.742;2024-03-17T10:34:49;18.92;;;17.02;;
80227;SDS011;69539;42.138;24.742;2024-03-17T10:37:18;18.05;;;16.20;;
80227;SDS011;69539;42.138;24.742;2024-03-17T10:39:50;17.60;;;15.80;;
80227;SDS011;69539;42.138;24.742;2024-03-17T10:42:22;17.67;;;15.80;;
80227;SDS011;69539;42.138;24.742;2024-03-17T10:45:01;17.17;;;15.45;;
80227;SDS011;69539;42.138;24.742;2024-03-17T10:47:32;15.73;;;14.02;;
80227;SDS011;69539;42.138;24.742;2024-03-17T10:49:58;17.63;;;14.80;;
80227;SDS011;69539;42.138;24.742;2024-03-17T10:52:29;17.55;;;13.95;;
80227;SDS011;69539;42.138;24.742;2024-03-17T10:55:22;15.00;;;13.40;;
80227;SDS011;69539;42.138;24.742;2024-03-17T10:57:50;15.23;;;13.65;;
80227;SDS011;69539;42.138;24.742;2024-03-17T11:00:17;15.30;;;13.68;;
80227;SDS011;69539;42.138;24.742;2024-03-17T11:02:44;13.38;;;11.98;;
80227;SDS011;69539;42.138;24.742;2024-03-17T11:07:39;11.95;;;10.75;;
80227;SDS011;69539;42.138;24.742;2024-03-17T11:10:11;21.67;;;19.52;;
80227;SDS011;69539;42.138;24.742;2024-03-17T11:17:45;130.13;;;115.88;;
80227;SDS011;69539;42.138;24.742;2024-03-17T11:20:17;73.88;;;66.20;;
80227;SDS011;69539;42.138;24.742;2024-03-17T11:22:51;57.03;;;51.00;;
80227;SDS011;69539;42.138;24.742;2024-03-17T11:27:53;31.45;;;28.08;;
80227;SDS011;69539;42.138;24.742;2024-03-17T11:38:51;213.77;;;191.07;;
80227;SDS011;69539;42.138;24.742;2024-03-17T11:41:48;196.60;;;174.88;;
80227;SDS011;69539;42.138;24.742;2024-03-17T11:47:17;650.22;;;581.85;;
80227;SDS011;69539;42.138;24.742;2024-03-17T11:49:43;311.13;;;262.55;;
80227;SDS011;69539;42.138;24.742;2024-03-17T11:52:11;309.33;;;258.95;;
80227;SDS011;69539;42.138;24.742;2024-03-17T11:54:41;162.98;;;136.40;;
80227;SDS011;69539;42.138;24.742;2024-03-17T11:57:08;142.63;;;119.20;;
80227;SDS011;69539;42.138;24.742;2024-03-17T11:59:37;102.13;;;89.93;;
80227;SDS011;69539;42.138;24.742;2024-03-17T12:05:03;55.00;;;47.30;;
80227;SDS011;69539;42.138;24.742;2024-03-17T12:07:30;19.42;;;16.58;;
80227;SDS011;69539;42.138;24.742;2024-03-17T12:09:56;18.30;;;13.57;;
80227;SDS011;69539;42.138;24.742;2024-03-17T12:12:23;15.80;;;12.75;;
80227;SDS011;69539;42.138;24.742;2024-03-17T12:14:55;13.40;;;10.40;;
80227;SDS011;69539;42.138;24.742;2024-03-17T12:17:22;13.38;;;9.07;;
80227;SDS011;69539;42.138;24.742;2024-03-17T12:19:49;208.90;;;177.57;;
80227;SDS011;69539;42.138;24.742;2024-03-17T12:22:16;661.60;;;590.83;;
80227;SDS011;69539;42.138;24.742;2024-03-17T12:24:46;683.20;;;612.40;;
80227;SDS011;69539;42.138;24.742;2024-03-17T12:27:17;865.05;;;744.05;;
80227;SDS011;69539;42.138;24.742;2024-03-17T12:29:43;407.50;;;334.23;;
80227;SDS011;69539;42.138;24.742;2024-03-17T12:34:36;228.98;;;186.82;;
80227;SDS011;69539;42.138;24.742;2024-03-17T12:37:02;150.77;;;122.53;;
80227;SDS011;69539;42.138;24.742;2024-03-17T12:39:29;112.15;;;95.85;;
80227;SDS011;69539;42.138;24.742;2024-03-17T12:42:05;79.68;;;66.43;;
80227;SDS011;69539;42.138;24.742;2024-03-17T12:44:39;54.65;;;47.55;;
80227;SDS011;69539;42.138;24.742;2024-03-17T12:47:19;35.55;;;31.58;;
80227;SDS011;69539;42.138;24.742;2024-03-17T12:54:57;13.27;;;11.82;;
80227;SDS011;69539;42.138;24.742;2024-03-17T12:57:45;9.60;;;7.55;;
80227;SDS011;69539;42.138;24.742;2024-03-17T13:00:30;8.55;;;6.60;;
80227;SDS011;69539;42.138;24.742;2024-03-17T13:03:03;7.25;;;6.32;;
80227;SDS011;69539;42.138;24.742;2024-03-17T13:05:30;7.28;;;5.93;;
80227;SDS011;69539;42.138;24.742;2024-03-17T13:07:57;7.13;;;6.28;;
80227;SDS011;69539;42.138;24.742;2024-03-17T13:10:24;8.40;;;6.80;;
80227;SDS011;69539;42.138;24.742;2024-03-17T13:13:00;8.50;;;6.82;;
80227;SDS011;69539;42.138;24.742;2024-03-17T13:15:27;9.30;;;6.15;;
80227;SDS011;69539;42.138;24.742;2024-03-17T13:17:56;384.23;;;342.33;;
80227;SDS011;69539;42.138;24.742;2024-03-17T13:20:22;420.80;;;347.55;;
80227;SDS011;69539;42.138;24.742;2024-03-17T13:22:48;412.55;;;335.58;;
80227;SDS011;69539;42.138;24.742;2024-03-17T13:25:14;328.35;;;263.27;;
80227;SDS011;69539;42.138;24.742;2024-03-17T13:30:08;436.05;;;361.55;;
80227;SDS011;69539;42.138;24.742;2024-03-17T13:32:34;423.35;;;351.35;;
80227;SDS011;69539;42.138;24.742;2024-03-17T13:35:01;208.98;;;177.75;;
80227;SDS011;69539;42.138;24.742;2024-03-17T13:37:27;125.50;;;102.95;;
80227;SDS011;69539;42.138;24.742;2024-03-17T13:39:53;43.92;;;38.33;;
80227;SDS011;69539;42.138;24.742;2024-03-17T13:42:18;44.45;;;39.58;;
80227;SDS011;69539;42.138;24.742;2024-03-17T13:44:45;21.60;;;17.73;;
80227;SDS011;69539;42.138;24.742;2024-03-17T13:47:11;12.85;;;11.45;;
80227;SDS011;69539;42.138;24.742;2024-03-17T13:49:39;11.63;;;9.77;;
80227;SDS011;69539;42.138;24.742;2024-03-17T13:52:04;8.77;;;7.53;;
80227;SDS011;69539;42.138;24.742;2024-03-17T13:54:30;12.45;;;9.20;;
80227;SDS011;69539;42.138;24.742;2024-03-17T13:56:56;11.60;;;7.80;;
80227;SDS011;69539;42.138;24.742;2024-03-17T13:59:23;9.15;;;7.55;;
80227;SDS011;69539;42.138;24.742;2024-03-17T14:01:50;9.52;;;7.45;;
80227;SDS011;69539;42.138;24.742;2024-03-17T14:04:16;8.55;;;6.90;;
80227;SDS011;69539;42.138;24.742;2024-03-17T14:06:43;8.00;;;7.03;;
80227;SDS011;69539;42.138;24.742;2024-03-17T14:09:10;8.05;;;6.70;;
80227;SDS011;69539;42.138;24.742;2024-03-17T14:11:45;9.50;;;6.35;;
80227;SDS011;69539;42.138;24.742;2024-03-17T14:14:11;9.13;;;6.18;;
80227;SDS011;69539;42.138;24.742;2024-03-17T14:16:37;8.70;;;6.80;;
80227;SDS011;69539;42.138;24.742;2024-03-17T14:19:03;7.13;;;6.05;;
80227;SDS011;69539;42.138;24.742;2024-03-17T14:21:28;7.75;;;5.55;;
80227;SDS011;69539;42.138;24.742;2024-03-17T14:23:54;6.45;;;5.85;;
80227;SDS011;69539;42.138;24.742;2024-03-17T14:26:21;7.88;;;6.30;;
80227;SDS011;69539;42.138;24.742;2024-03-17T14:28:47;7.28;;;6.47;;
80227;SDS011;69539;42.138;24.742;2024-03-17T14:31:15;8.88;;;7.57;;
80227;SDS011;69539;42.138;24.742;2024-03-17T14:33:42;8.30;;;6.10;;
80227;SDS011;69539;42.138;24.742;2024-03-17T14:36:08;7.90;;;6.45;;
80227;SDS011;69539;42.138;24.742;2024-03-17T14:38:34;38.10;;;34.00;;
80227;SDS011;69539;42.138;24.742;2024-03-17T14:41:00;585.88;;;521.42;;
80227;SDS011;69539;42.138;24.742;2024-03-17T14:43:26;498.30;;;435.45;;
80227;SDS011;69539;42.138;24.742;2024-03-17T14:45:52;316.02;;;253.70;;
80227;SDS011;69539;42.138;24.742;2024-03-17T14:48:17;195.40;;;154.52;;
80227;SDS011;69539;42.138;24.742;2024-03-17T14:50:44;95.65;;;77.30;;
80227;SDS011;69539;42.138;24.742;2024-03-17T14:53:09;43.10;;;34.92;;
80227;SDS011;69539;42.138;24.742;2024-03-17T14:55:35;12.30;;;10.25;;
80227;SDS011;69539;42.138;24.742;2024-03-17T14:58:00;9.75;;;8.10;;
80227;SDS011;69539;42.138;24.742;2024-03-17T15:00:27;9.00;;;7.50;;
80227;SDS011;69539;42.138;24.742;2024-03-17T15:02:55;10.90;;;9.55;;